Alplaus, NY (12008)

4:45 AM EDT on March 29, 2017 (GMT -0400)
MKSCH | | Change Station

Elev 377 ft 42.85 °N, 73.93 °W | Updated 36 minutes ago

Overcast
Overcast
39.0 °F
Feels Like 35 °F
N
5.0
Wind Variable Wind from North

Today
High -- | Low -- °F
--% Chance of Precip.
Yesterday
High -- | Low -- °F
Precip. -- in
Pressure 30.06 in
Visibility 10.0 miles
Clouds Few 800 ft
Overcast 2300 ft
Windchill 35 °F
Dew Point 39 °F
Humidity 100%
Rainfall 0.15 in
Snow Depth Not available.
6:42 AM 7:18 PM
New Moon, 2% visible
METAR KALB 290751Z 34006KT 10SM FEW008 OVC023 04/03 A3005 RMK AO2 SLP177 T00440028
Pressure 30.06 in
Visibility 10.0 miles
Clouds Few 800 ft
Overcast 2300 ft
Windchill 35 °F
Dew Point 39 °F
Humidity 100%
Rainfall 0.15 in
Snow Depth Not available.
6:42 AM 7:18 PM
New Moon, 2% visible
METAR KALB 290751Z 34006KT 10SM FEW008 OVC023 04/03 A3005 RMK AO2 SLP177 T00440028

Get Severe Weather Alerts

Thanks for signing up!

Be on the lookout for a verification email in your inbox.

You'll start receiving the daily forecast at 8 AM.

×

10-Day Weather Forecast

Almanac

Astronomy

Mar. 29, 2017 Rise Set
Actual Time
Civil Twilight
Nautical Twilight
Astronomical Twilight
Moon
Length of Visible Light
Length of Day
Tomorrow will be .
, % of the Moon is Illuminated

Today's Extremes

State Highs State Lows

Community

WunderPhotos

Upload Photos

1,962,540 photos uploaded!

WunderBlog® & News

Nearby

Air Quality

  Air Quality AQ Index Pollutant
Not available.

Snow Depth

Station Depth Elevation

Earthquake Activity

City Distance Mag. Time & Date
Minimum magnitude displayed is 2.5.

Earthquake Activity

City Distance Mag. Time & Date
Minimum magnitude displayed is 2.5.

Coastal Water Temperatures

Place Temperature

Stations

Nearby Weather Stations

Station Location Temp. Windchill Dew Point Humidity Wind Precip. Elev Updated Type
                   

Watches & Warnings

There are currently no watches in effect.